Time;durP1;ratioP1;P1;durP2;ratioP2;P2;SDS_P1;SDS_P2;PMS_P1;PMS_P2;Temp;Humidity;BMP_temperature;BMP_pressure;BME280_temperature;BME280_humidity;BME280_pressure;Samples;Min_cycle;Max_cycle;Signal;HPM_P1;HPM_P2
2022/11/04 00:01:40;;;;;;;;;4.00;2.00;;;;;;;;5045676;28;45259;-67
2022/11/04 00:04:06;;;;;;;;;2.00;2.00;;;;;;;;5033766;28;47785;-71
2022/11/04 00:06:31;;;;;;;;;1.00;1.00;;;;;;;;5051484;28;45345;-68
2022/11/04 00:08:57;;;;;;;;;2.33;1.00;;;;;;;;5037029;28;45278;-66
2022/11/04 00:14:08;;;;;;;;;3.33;2.00;;;;;;;;5034609;28;45791;-67
2022/11/04 00:19:17;;;;;;;;;2.00;0.00;;;;;;;;5032888;28;45243;-65
2022/11/04 00:29:58;;;;;;;;;0.67;0.33;;;;;;;;5034266;28;45766;-68
2022/11/04 00:35:08;;;;;;;;;1.33;0.67;;;;;;;;5037871;28;45451;-66
2022/11/04 00:37:38;;;;;;;;;5.00;1.33;;;;;;;;5040756;28;45855;-66
2022/11/04 00:40:03;;;;;;;;;3.00;1.33;;;;;;;;5046508;28;45751;-66
2022/11/04 00:42:28;;;;;;;;;3.00;1.33;;;;;;;;5038059;28;45670;-67
2022/11/04 00:44:54;;;;;;;;;1.00;1.00;;;;;;;;5041855;28;46061;-68
2022/11/04 00:47:19;;;;;;;;;0.67;0.67;;;;;;;;5041149;28;45632;-69
2022/11/04 00:49:44;;;;;;;;;1.67;0.33;;;;;;;;5042894;28;45330;-69
2022/11/04 00:52:09;;;;;;;;;1.00;0.67;;;;;;;;5048062;28;45580;-67
2022/11/04 00:54:35;;;;;;;;;1.33;1.00;;;;;;;;5043689;28;45973;-66
2022/11/04 00:57:00;;;;;;;;;2.00;2.00;;;;;;;;5042268;28;45412;-66
2022/11/04 00:59:25;;;;;;;;;3.00;1.33;;;;;;;;5035742;28;45374;-67
2022/11/04 01:01:50;;;;;;;;;1.67;0.67;;;;;;;;5037958;28;45445;-65
2022/11/04 01:04:16;;;;;;;;;1.33;0.00;;;;;;;;5037092;28;45636;-66
2022/11/04 01:06:41;;;;;;;;;1.67;1.67;;;;;;;;5040305;28;45653;-67
2022/11/04 01:09:07;;;;;;;;;3.67;2.00;;;;;;;;5042054;28;45685;-65
2022/11/04 01:11:33;;;;;;;;;2.33;2.00;;;;;;;;5039005;28;45687;-65
2022/11/04 01:13:58;;;;;;;;;4.00;1.00;;;;;;;;5038727;28;46242;-65
2022/11/04 01:16:24;;;;;;;;;2.67;1.67;;;;;;;;5024370;28;45574;-65
2022/11/04 01:18:49;;;;;;;;;3.00;1.00;;;;;;;;5046677;28;45648;-65
2022/11/04 01:21:15;;;;;;;;;4.00;2.67;;;;;;;;5042381;28;45709;-65
2022/11/04 01:23:41;;;;;;;;;4.00;2.00;;;;;;;;5045579;28;45392;-66
2022/11/04 01:26:14;;;;;;;;;1.00;1.00;;;;;;;;5052326;28;45331;-66
2022/11/04 01:28:39;;;;;;;;;2.33;1.33;;;;;;;;5045212;28;45775;-64
2022/11/04 01:31:08;;;;;;;;;2.00;1.00;;;;;;;;5042242;28;45689;-67
2022/11/04 01:33:34;;;;;;;;;3.00;1.67;;;;;;;;5043781;28;45770;-65
2022/11/04 01:35:59;;;;;;;;;3.67;3.67;;;;;;;;5048915;28;45629;-65
2022/11/04 01:38:25;;;;;;;;;2.00;0.33;;;;;;;;5054394;28;45309;-64
2022/11/04 01:40:50;;;;;;;;;2.33;1.00;;;;;;;;5046390;28;45721;-65
2022/11/04 01:43:17;;;;;;;;;1.00;1.00;;;;;;;;5046945;28;45725;-67
2022/11/04 01:45:47;;;;;;;;;1.00;0.67;;;;;;;;5043782;28;45354;-67
2022/11/04 01:48:21;;;;;;;;;2.00;2.00;;;;;;;;5044344;28;45430;-68
2022/11/04 01:50:47;;;;;;;;;1.33;0.67;;;;;;;;5024888;28;45437;-66
2022/11/04 01:53:16;;;;;;;;;0.00;0.00;;;;;;;;5050775;28;45733;-65
2022/11/04 01:55:48;;;;;;;;;1.33;0.67;;;;;;;;5046515;28;45482;-66
2022/11/04 01:58:14;;;;;;;;;1.00;0.00;;;;;;;;5035527;28;45725;-65
2022/11/04 02:00:40;;;;;;;;;2.33;0.33;;;;;;;;5042708;28;45654;-65
2022/11/04 02:03:11;;;;;;;;;1.00;1.00;;;;;;;;5052662;28;45549;-66
2022/11/04 02:05:37;;;;;;;;;1.67;0.67;;;;;;;;5054439;28;45783;-66
2022/11/04 02:08:04;;;;;;;;;1.00;1.00;;;;;;;;5042515;28;45430;-67
2022/11/04 02:10:30;;;;;;;;;1.00;1.00;;;;;;;;5053595;28;45578;-64
2022/11/04 02:12:57;;;;;;;;;2.33;0.33;;;;;;;;5053424;28;45361;-64
2022/11/04 02:15:28;;;;;;;;;1.00;1.00;;;;;;;;5035760;28;45491;-65
2022/11/04 02:18:05;;;;;;;;;1.67;1.00;;;;;;;;5047104;28;45405;-66
2022/11/04 02:20:36;;;;;;;;;0.67;0.67;;;;;;;;5049816;28;45627;-65
2022/11/04 02:23:01;;;;;;;;;3.33;0.67;;;;;;;;5053244;28;45448;-65
2022/11/04 02:25:35;;;;;;;;;3.00;1.00;;;;;;;;5052477;28;45797;-65
2022/11/04 02:28:09;;;;;;;;;1.00;0.33;;;;;;;;5053013;28;45492;-65
2022/11/04 02:30:37;;;;;;;;;4.00;1.00;;;;;;;;5051742;28;45572;-64
2022/11/04 02:33:06;;;;;;;;;1.33;1.00;;;;;;;;5035144;28;46652;-66
2022/11/04 02:35:31;;;;;;;;;2.33;0.67;;;;;;;;5035337;28;45939;-67
2022/11/04 02:37:56;;;;;;;;;1.00;0.00;;;;;;;;5047690;28;45677;-66
2022/11/04 02:40:43;;;;;;;;;2.00;2.00;;;;;;;;5052246;28;45889;-69
2022/11/04 02:43:19;;;;;;;;;2.00;0.00;;;;;;;;5042086;28;45322;-67
2022/11/04 02:45:51;;;;;;;;;2.33;0.00;;;;;;;;5053650;28;45610;-68
2022/11/04 02:48:16;;;;;;;;;0.00;0.00;;;;;;;;5053120;28;45511;-68
2022/11/04 02:53:46;;;;;;;;;0.00;0.00;;;;;;;;5094448;22;45413;-66
2022/11/04 02:56:19;;;;;;;;;2.33;0.00;;;;;;;;5100728;22;45347;-87
2022/11/04 02:59:26;;;;;;;;;1.33;0.33;;;;;;;;5084825;28;45253;-87
2022/11/04 03:02:17;;;;;;;;;3.67;1.00;;;;;;;;5004400;28;45743;-87
2022/11/04 03:05:14;;;;;;;;;;;;;;;;;;;;;
2022/11/04 03:08:06;;;;;;;;;3.33;1.67;;;;;;;;5036658;28;73466;-89
2022/11/04 03:11:11;;;;;;;;;;;;;;;;;;;;;
2022/11/04 03:14:10;;;;;;;;;4.00;1.00;;;;;;;;5021806;28;73679;-86
2022/11/04 03:20:08;;;;;;;;;;;;;;;;;;;;;
2022/11/04 03:22:58;;;;;;;;;;;;;;;;;;;;;
2022/11/04 03:25:39;;;;;;;;;1.00;0.00;;;;;;;;5033411;28;73552;-86
2022/11/04 03:28:44;;;;;;;;;0.67;0.00;;;;;;;;5047871;28;45878;-87
2022/11/04 03:31:36;;;;;;;;;;;;;;;;;;;;;
2022/11/04 03:34:26;;;;;;;;;0.00;0.00;;;;;;;;5077035;28;68380;-88
2022/11/04 03:37:15;;;;;;;;;2.00;2.00;;;;;;;;5072829;28;45492;-86
2022/11/04 03:43:28;;;;;;;;;;;;;;;;;;;;;
2022/11/04 03:46:27;;;;;;;;;;;;;;;;;;;;;
2022/11/04 03:49:12;;;;;;;;;0.00;0.00;;;;;;;;5050859;28;73323;-87
2022/11/04 03:52:02;;;;;;;;;2.00;0.67;;;;;;;;5079894;28;45238;-86
2022/11/04 03:54:31;;;;;;;;;0.00;0.00;;;;;;;;5093382;27;45538;-88
2022/11/04 03:57:00;;;;;;;;;0.00;0.00;;;;;;;;5096253;28;45489;-86
2022/11/04 03:59:31;;;;;;;;;1.33;1.00;;;;;;;;5098561;28;45351;-85
2022/11/04 04:02:19;;;;;;;;;0.00;0.00;;;;;;;;5091645;28;46020;-86
2022/11/04 04:04:54;;;;;;;;;0.00;0.00;;;;;;;;5094690;28;44796;-84
2022/11/04 04:07:31;;;;;;;;;0.00;0.00;;;;;;;;5073719;28;45278;-84
2022/11/04 04:10:37;;;;;;;;;1.33;0.67;;;;;;;;5074935;28;45506;-85
2022/11/04 04:16:10;;;;;;;;;0.00;0.00;;;;;;;;5081151;27;45280;-85
2022/11/04 04:19:17;;;;;;;;;0.00;0.00;;;;;;;;5062329;28;45540;-86
2022/11/04 04:22:10;;;;;;;;;;;;;;;;;;;;;
2022/11/04 04:27:57;;;;;;;;;0.00;0.00;;;;;;;;5088781;28;45366;-88
2022/11/04 04:30:57;;;;;;;;;1.67;0.67;;;;;;;;5065543;28;45399;-86
2022/11/04 04:36:48;;;;;;;;;0.00;0.00;;;;;;;;5073578;28;45346;-89
2022/11/04 04:45:37;;;;;;;;;2.00;1.00;;;;;;;;5012038;28;44971;-91
2022/11/04 04:48:12;;;;;;;;;1.00;0.00;;;;;;;;5033405;27;45585;-84
2022/11/04 04:50:49;;;;;;;;;2.33;1.00;;;;;;;;5057998;28;45727;-84
2022/11/04 04:53:23;;;;;;;;;1.00;0.00;;;;;;;;5073075;27;45608;-87
2022/11/04 04:56:33;;;;;;;;;0.00;0.00;;;;;;;;5084952;28;45711;-87
2022/11/04 04:59:24;;;;;;;;;1.00;0.00;;;;;;;;5081733;28;45816;-85
2022/11/04 05:01:59;;;;;;;;;0.67;0.00;;;;;;;;5086491;28;45535;-85
2022/11/04 05:04:41;;;;;;;;;1.33;0.67;;;;;;;;5068647;28;45441;-85
2022/11/04 05:07:10;;;;;;;;;2.33;1.00;;;;;;;;5083489;28;45375;-86
2022/11/04 05:09:36;;;;;;;;;4.00;0.33;;;;;;;;5075711;28;45597;-86
2022/11/04 05:12:13;;;;;;;;;;;;;;;;;;;;;
2022/11/04 05:14:38;;;;;;;;;0.33;0.00;;;;;;;;5083756;27;67919;-82
2022/11/04 05:17:03;;;;;;;;;1.00;0.00;;;;;;;;5105983;22;45544;-66
2022/11/04 05:19:29;;;;;;;;;0.00;0.00;;;;;;;;5042829;28;46430;-65
2022/11/04 05:21:54;;;;;;;;;0.00;0.00;;;;;;;;5035796;28;45332;-66
2022/11/04 05:24:19;;;;;;;;;0.00;0.00;;;;;;;;5041288;28;45393;-64
2022/11/04 05:26:44;;;;;;;;;1.33;0.67;;;;;;;;5040941;28;45449;-66
2022/11/04 05:29:11;;;;;;;;;0.00;0.00;;;;;;;;5043232;28;45470;-65
2022/11/04 05:31:36;;;;;;;;;0.33;0.00;;;;;;;;5046159;28;45373;-66
2022/11/04 05:34:01;;;;;;;;;4.00;0.00;;;;;;;;5042120;28;45806;-65
2022/11/04 05:36:27;;;;;;;;;2.00;0.67;;;;;;;;5039770;28;45722;-65
2022/11/04 05:38:54;;;;;;;;;1.00;1.00;;;;;;;;5046499;28;45663;-66
2022/11/04 05:41:27;;;;;;;;;1.33;1.33;;;;;;;;5036766;28;45455;-64
2022/11/04 05:43:52;;;;;;;;;2.00;0.33;;;;;;;;5024052;28;45482;-65
2022/11/04 05:46:18;;;;;;;;;0.00;0.00;;;;;;;;5036521;28;45987;-66
2022/11/04 05:48:43;;;;;;;;;2.00;1.33;;;;;;;;5039548;28;45769;-67
2022/11/04 05:51:11;;;;;;;;;3.67;2.33;;;;;;;;5040633;28;45750;-64
2022/11/04 05:53:37;;;;;;;;;2.00;0.00;;;;;;;;5042245;28;45498;-65
2022/11/04 05:56:02;;;;;;;;;3.33;1.00;;;;;;;;5042365;28;45571;-65
2022/11/04 05:58:27;;;;;;;;;5.33;2.33;;;;;;;;5021002;28;46965;-64
2022/11/04 06:00:52;;;;;;;;;0.00;0.00;;;;;;;;5039161;28;45429;-66
2022/11/04 06:03:18;;;;;;;;;2.00;1.00;;;;;;;;5040393;28;45867;-65
2022/11/04 06:05:43;;;;;;;;;4.33;2.00;;;;;;;;5031949;28;45538;-66
2022/11/04 06:08:08;;;;;;;;;0.67;0.67;;;;;;;;5048342;28;45628;-65
2022/11/04 06:10:33;;;;;;;;;1.00;1.00;;;;;;;;5059744;28;45713;-66
2022/11/04 06:12:59;;;;;;;;;1.00;1.00;;;;;;;;5043111;28;46388;-65
2022/11/04 06:15:24;;;;;;;;;1.67;0.00;;;;;;;;5057595;28;45961;-66
2022/11/04 06:17:49;;;;;;;;;3.00;1.00;;;;;;;;5050599;28;45720;-66
2022/11/04 06:20:15;;;;;;;;;2.00;1.00;;;;;;;;5048618;28;45644;-66
2022/11/04 06:22:40;;;;;;;;;1.67;1.00;;;;;;;;5050812;28;45381;-65
2022/11/04 06:25:05;;;;;;;;;3.00;1.00;;;;;;;;5045041;28;45547;-66
2022/11/04 06:27:31;;;;;;;;;1.00;1.00;;;;;;;;5046802;28;45575;-67
2022/11/04 06:29:56;;;;;;;;;2.33;2.33;;;;;;;;5053713;28;45760;-65
2022/11/04 06:32:21;;;;;;;;;6.00;4.33;;;;;;;;5045323;28;45369;-66
2022/11/04 06:34:46;;;;;;;;;3.00;3.00;;;;;;;;5054394;28;45639;-66
2022/11/04 06:37:12;;;;;;;;;2.00;1.00;;;;;;;;5047585;28;45567;-67
2022/11/04 06:39:37;;;;;;;;;1.00;1.00;;;;;;;;5054065;28;45475;-67
2022/11/04 06:42:03;;;;;;;;;2.67;2.67;;;;;;;;5053604;28;45476;-66
2022/11/04 06:44:29;;;;;;;;;0.67;0.67;;;;;;;;5043732;28;45808;-69
2022/11/04 06:46:54;;;;;;;;;2.00;2.00;;;;;;;;5051301;28;45588;-67
2022/11/04 06:49:20;;;;;;;;;2.33;1.00;;;;;;;;5052683;28;45791;-67
2022/11/04 06:51:46;;;;;;;;;2.33;0.67;;;;;;;;5053600;28;45846;-66
2022/11/04 06:54:11;;;;;;;;;3.00;3.00;;;;;;;;5034575;28;45755;-68
2022/11/04 06:56:37;;;;;;;;;3.00;1.67;;;;;;;;5047445;28;46273;-69
2022/11/04 06:59:02;;;;;;;;;3.67;0.33;;;;;;;;5042381;28;45392;-66
2022/11/04 07:01:29;;;;;;;;;2.33;1.33;;;;;;;;5047646;28;45778;-66
2022/11/04 07:03:56;;;;;;;;;0.00;0.00;;;;;;;;5053322;28;45664;-67
2022/11/04 07:06:21;;;;;;;;;1.33;1.00;;;;;;;;5034849;28;45992;-66
2022/11/04 07:08:47;;;;;;;;;0.33;0.00;;;;;;;;5041018;28;45476;-67
2022/11/04 07:11:13;;;;;;;;;1.00;0.67;;;;;;;;5039123;28;45997;-67
2022/11/04 07:13:39;;;;;;;;;3.67;2.00;;;;;;;;5040719;28;45443;-69
2022/11/04 07:16:05;;;;;;;;;2.00;2.00;;;;;;;;5032030;28;45413;-68
2022/11/04 07:18:30;;;;;;;;;2.67;1.33;;;;;;;;5037507;28;45460;-68
2022/11/04 07:20:56;;;;;;;;;2.67;1.67;;;;;;;;5030951;28;45696;-68
2022/11/04 07:23:21;;;;;;;;;2.00;0.67;;;;;;;;5029755;28;46614;-66
2022/11/04 07:25:46;;;;;;;;;2.33;0.00;;;;;;;;5034790;28;45408;-68
2022/11/04 07:28:11;;;;;;;;;0.00;0.00;;;;;;;;5034080;28;45764;-67
2022/11/04 07:30:37;;;;;;;;;2.00;0.67;;;;;;;;5045048;28;45631;-68
2022/11/04 07:33:02;;;;;;;;;4.67;1.67;;;;;;;;5032641;28;45375;-68
2022/11/04 07:35:27;;;;;;;;;2.33;0.33;;;;;;;;5041476;28;45325;-67
2022/11/04 07:37:53;;;;;;;;;1.00;0.67;;;;;;;;5042182;28;45750;-67
2022/11/04 07:40:19;;;;;;;;;4.67;1.00;;;;;;;;5018546;28;45935;-67
2022/11/04 07:42:44;;;;;;;;;0.67;0.67;;;;;;;;5044340;28;45790;-66
2022/11/04 07:45:10;;;;;;;;;2.67;1.67;;;;;;;;5040105;28;45646;-66
2022/11/04 07:47:35;;;;;;;;;3.00;1.33;;;;;;;;5027552;28;45393;-67
2022/11/04 07:50:00;;;;;;;;;1.67;1.67;;;;;;;;5040922;28;45439;-69
2022/11/04 07:52:26;;;;;;;;;6.67;1.67;;;;;;;;5045017;28;45712;-71
2022/11/04 07:54:51;;;;;;;;;5.00;1.33;;;;;;;;5042758;28;46031;-65
2022/11/04 07:57:16;;;;;;;;;1.00;1.00;;;;;;;;5052617;28;45823;-65
2022/11/04 07:59:41;;;;;;;;;1.00;1.00;;;;;;;;5040370;28;45877;-65
2022/11/04 08:02:11;;;;;;;;;2.67;0.67;;;;;;;;5053456;28;45902;-67
2022/11/04 08:04:36;;;;;;;;;2.33;0.33;;;;;;;;5051525;28;45859;-70
2022/11/04 08:07:10;;;;;;;;;4.00;1.00;;;;;;;;5043752;28;45697;-70
2022/11/04 08:09:36;;;;;;;;;1.33;0.33;;;;;;;;5048270;28;45495;-71
2022/11/04 08:12:02;;;;;;;;;2.00;1.67;;;;;;;;5034232;28;45315;-73
2022/11/04 08:14:27;;;;;;;;;4.67;1.00;;;;;;;;5033931;28;46163;-69
2022/11/04 08:16:52;;;;;;;;;3.67;1.00;;;;;;;;5052918;28;46235;-69
2022/11/04 08:19:18;;;;;;;;;1.00;1.00;;;;;;;;5025524;28;45781;-69
2022/11/04 08:21:43;;;;;;;;;0.67;0.67;;;;;;;;5026925;28;46358;-68
2022/11/04 08:24:08;;;;;;;;;3.33;0.33;;;;;;;;5047943;28;45824;-69
2022/11/04 08:26:37;;;;;;;;;0.00;0.00;;;;;;;;5056239;28;45872;-70
2022/11/04 08:29:05;;;;;;;;;1.33;0.00;;;;;;;;5042693;28;45742;-70
2022/11/04 08:31:30;;;;;;;;;0.00;0.00;;;;;;;;5066490;28;45429;-69
2022/11/04 08:33:56;;;;;;;;;4.33;0.00;;;;;;;;5045492;28;45318;-71
2022/11/04 08:36:23;;;;;;;;;0.00;0.00;;;;;;;;5048258;28;45591;-70
2022/11/04 08:38:52;;;;;;;;;2.00;1.33;;;;;;;;5035770;28;45646;-70
2022/11/04 08:41:18;;;;;;;;;2.00;1.00;;;;;;;;5053782;28;45862;-70
2022/11/04 08:43:46;;;;;;;;;2.00;1.00;;;;;;;;5066602;28;46541;-71
2022/11/04 08:46:12;;;;;;;;;2.33;1.00;;;;;;;;5060305;28;45563;-70
2022/11/04 08:48:38;;;;;;;;;1.00;1.00;;;;;;;;5058831;28;45637;-68
2022/11/04 08:51:05;;;;;;;;;1.00;1.00;;;;;;;;5051592;28;45695;-68
2022/11/04 08:53:30;;;;;;;;;2.00;1.00;;;;;;;;5050230;28;46057;-68
2022/11/04 08:55:55;;;;;;;;;0.00;0.00;;;;;;;;5034562;28;45753;-69
2022/11/04 08:58:22;;;;;;;;;1.75;1.00;;;;;;;;5044731;28;45361;-65
2022/11/04 09:00:48;;;;;;;;;3.00;0.00;;;;;;;;5059199;28;45539;-65
2022/11/04 09:03:13;;;;;;;;;3.00;1.00;;;;;;;;5035836;28;47684;-66
2022/11/04 09:05:47;;;;;;;;;0.00;0.00;;;;;;;;5034846;28;45858;-65
2022/11/04 09:08:14;;;;;;;;;0.50;0.50;;;;;;;;5046359;28;45397;-64
2022/11/04 09:10:43;;;;;;;;;3.00;1.00;;;;;;;;5023815;28;45969;-65
2022/11/04 09:13:10;;;;;;;;;1.50;1.50;;;;;;;;5029342;28;46354;-65
2022/11/04 09:15:36;;;;;;;;;1.00;1.00;;;;;;;;5051452;28;46754;-65
2022/11/04 09:18:01;;;;;;;;;2.75;1.75;;;;;;;;5055583;28;45512;-65
2022/11/04 09:20:26;;;;;;;;;1.50;1.25;;;;;;;;5048444;28;45689;-65
2022/11/04 09:22:53;;;;;;;;;0.00;0.00;;;;;;;;5053245;28;46269;-64
2022/11/04 09:25:18;;;;;;;;;0.00;0.00;;;;;;;;5047438;28;45500;-65
2022/11/04 09:27:43;;;;;;;;;1.50;1.50;;;;;;;;5049807;28;45407;-67
2022/11/04 09:30:09;;;;;;;;;0.50;0.00;;;;;;;;5050917;28;45452;-66
2022/11/04 09:32:34;;;;;;;;;2.50;0.50;;;;;;;;5052147;28;46642;-66
2022/11/04 09:34:59;;;;;;;;;1.00;1.00;;;;;;;;5050268;28;45812;-66
2022/11/04 09:37:24;;;;;;;;;2.75;0.00;;;;;;;;5050629;28;45705;-65
2022/11/04 09:39:50;;;;;;;;;2.25;0.25;;;;;;;;5033965;28;45765;-65
2022/11/04 09:42:21;;;;;;;;;0.00;0.00;;;;;;;;5050588;28;45406;-66
2022/11/04 09:44:57;;;;;;;;;3.75;2.00;;;;;;;;5052547;28;45639;-66
2022/11/04 09:47:23;;;;;;;;;1.00;0.25;;;;;;;;5051031;28;45609;-68
2022/11/04 09:49:51;;;;;;;;;0.00;0.00;;;;;;;;5034756;28;46014;-67
2022/11/04 09:52:20;;;;;;;;;1.75;0.50;;;;;;;;5049909;28;46334;-66
2022/11/04 09:54:59;;;;;;;;;0.50;0.00;;;;;;;;5053383;28;45722;-66
2022/11/04 09:57:24;;;;;;;;;0.00;0.00;;;;;;;;5041170;28;45537;-66
2022/11/04 09:59:49;;;;;;;;;2.00;1.50;;;;;;;;5043250;28;45373;-64
2022/11/04 10:02:41;;;;;;;;;0.75;0.75;;;;;;;;5049156;28;45822;-64
2022/11/04 10:05:07;;;;;;;;;0.00;0.00;;;;;;;;5041951;28;45586;-66
2022/11/04 10:07:32;;;;;;;;;0.50;0.50;;;;;;;;5048576;28;46422;-64
2022/11/04 10:10:00;;;;;;;;;1.00;1.00;;;;;;;;5034901;28;47333;-66
2022/11/04 10:12:41;;;;;;;;;4.50;1.00;;;;;;;;5049265;28;45741;-65
2022/11/04 10:15:25;;;;;;;;;0.25;0.25;;;;;;;;5046692;28;45698;-67
2022/11/04 10:17:58;;;;;;;;;6.00;3.00;;;;;;;;5057775;28;45815;-65
2022/11/04 10:20:32;;;;;;;;;1.50;0.25;;;;;;;;5053392;28;45501;-65
2022/11/04 10:23:01;;;;;;;;;1.50;0.00;;;;;;;;5046243;28;47613;-64
2022/11/04 10:25:47;;;;;;;;;0.50;0.50;;;;;;;;5061781;28;45792;-65
2022/11/04 10:28:21;;;;;;;;;0.00;0.00;;;;;;;;5031774;28;45810;-66
2022/11/04 10:30:47;;;;;;;;;2.00;1.00;;;;;;;;5049127;28;45647;-64
2022/11/04 10:33:13;;;;;;;;;0.00;0.00;;;;;;;;5051883;28;46731;-65
2022/11/04 10:35:49;;;;;;;;;0.00;0.00;;;;;;;;5044249;28;45855;-65
2022/11/04 10:38:16;;;;;;;;;1.00;1.00;;;;;;;;5046848;28;45618;-64
2022/11/04 10:40:44;;;;;;;;;2.25;1.00;;;;;;;;5051016;28;45688;-66
2022/11/04 10:43:12;;;;;;;;;0.00;0.00;;;;;;;;5053089;28;46356;-65
2022/11/04 10:46:02;;;;;;;;;0.75;0.25;;;;;;;;5051122;28;45764;-69
2022/11/04 10:48:31;;;;;;;;;1.00;1.00;;;;;;;;5051555;28;45604;-69
2022/11/04 10:50:57;;;;;;;;;1.00;1.00;;;;;;;;5049997;28;45380;-68
2022/11/04 10:53:24;;;;;;;;;0.00;0.00;;;;;;;;5053628;28;45890;-68
2022/11/04 10:55:56;;;;;;;;;2.00;0.75;;;;;;;;5044828;28;45400;-67
2022/11/04 10:58:27;;;;;;;;;0.00;0.00;;;;;;;;5026142;28;45675;-68
2022/11/04 11:00:53;;;;;;;;;3.50;0.00;;;;;;;;5054133;28;45822;-71
2022/11/04 11:03:24;;;;;;;;;1.25;1.25;;;;;;;;5052138;28;47351;-71
2022/11/04 11:05:50;;;;;;;;;2.00;1.00;;;;;;;;5049069;28;45472;-68
2022/11/04 11:08:45;;;;;;;;;5.67;4.00;;;;;;;;5048928;28;45759;-75
2022/11/04 11:11:11;;;;;;;;;1.25;0.00;;;;;;;;5025184;28;45928;-66
2022/11/04 11:13:41;;;;;;;;;0.00;0.00;;;;;;;;5032621;28;48369;-67
2022/11/04 11:16:06;;;;;;;;;0.00;0.00;;;;;;;;5038636;28;45475;-71
2022/11/04 11:18:32;;;;;;;;;2.25;0.00;;;;;;;;5044957;28;45631;-64
2022/11/04 11:21:09;;;;;;;;;1.00;0.00;;;;;;;;5059131;28;45512;-65
2022/11/04 11:23:34;;;;;;;;;1.00;1.00;;;;;;;;5038779;28;45620;-64
2022/11/04 11:26:00;;;;;;;;;0.00;0.00;;;;;;;;5045210;28;45348;-63
2022/11/04 11:28:26;;;;;;;;;0.00;0.00;;;;;;;;5036200;28;45820;-66
2022/11/04 11:30:56;;;;;;;;;1.50;0.25;;;;;;;;5038344;28;45498;-67
2022/11/04 11:33:24;;;;;;;;;6.67;3.00;;;;;;;;5036342;28;45349;-65
2022/11/04 11:35:52;;;;;;;;;2.25;1.00;;;;;;;;5042506;28;45771;-64
2022/11/04 11:38:22;;;;;;;;;1.00;1.00;;;;;;;;5041086;28;45740;-66
2022/11/04 11:40:51;;;;;;;;;6.33;6.33;;;;;;;;5048106;28;45490;-64
2022/11/04 11:43:25;;;;;;;;;13.00;9.33;;;;;;;;5047927;28;45433;-64
2022/11/04 11:45:50;;;;;;;;;1.67;0.00;;;;;;;;5039241;28;45721;-66
2022/11/04 11:48:29;;;;;;;;;4.00;2.33;;;;;;;;5032782;28;45715;-67
2022/11/04 11:50:59;;;;;;;;;3.33;0.00;;;;;;;;5048660;28;45385;-66
2022/11/04 11:53:28;;;;;;;;;2.00;1.00;;;;;;;;5050252;28;46094;-67
2022/11/04 11:55:58;;;;;;;;;1.00;1.00;;;;;;;;5050865;28;45345;-64
2022/11/04 11:58:30;;;;;;;;;8.33;4.67;;;;;;;;5043606;28;45391;-66
2022/11/04 12:01:05;;;;;;;;;3.00;2.00;;;;;;;;5041214;28;45456;-67
2022/11/04 12:03:36;;;;;;;;;1.00;1.00;;;;;;;;5045013;28;45506;-65
2022/11/04 12:06:06;;;;;;;;;4.33;2.00;;;;;;;;5031221;28;45326;-66
2022/11/04 12:08:55;;;;;;;;;2.00;0.00;;;;;;;;5037736;28;45803;-66
2022/11/04 12:11:26;;;;;;;;;2.00;1.00;;;;;;;;5022391;28;45775;-71
2022/11/04 12:13:54;;;;;;;;;1.00;1.00;;;;;;;;5019963;28;46381;-67
2022/11/04 12:16:38;;;;;;;;;2.00;1.00;;;;;;;;5022302;28;45809;-66
2022/11/04 12:19:12;;;;;;;;;2.33;1.33;;;;;;;;5031725;28;45882;-64
2022/11/04 12:21:57;;;;;;;;;0.25;0.25;;;;;;;;5030870;28;45557;-66
2022/11/04 12:24:28;;;;;;;;;0.33;0.33;;;;;;;;5036771;28;46324;-66
2022/11/04 12:26:54;;;;;;;;;2.00;2.00;;;;;;;;5035193;28;45769;-65
2022/11/04 12:29:26;;;;;;;;;1.33;1.00;;;;;;;;5033672;28;45641;-66
2022/11/04 12:31:54;;;;;;;;;1.00;1.00;;;;;;;;5036048;28;45602;-65
2022/11/04 12:34:22;;;;;;;;;0.33;0.00;;;;;;;;5040087;28;46240;-66
2022/11/04 12:36:57;;;;;;;;;2.33;0.00;;;;;;;;5032808;28;45509;-69
2022/11/04 12:39:28;;;;;;;;;0.67;0.67;;;;;;;;5038323;28;45360;-67
2022/11/04 12:42:11;;;;;;;;;1.00;1.00;;;;;;;;5044071;28;45421;-66
2022/11/04 12:44:48;;;;;;;;;2.00;2.00;;;;;;;;5043722;28;46294;-67
2022/11/04 12:47:22;;;;;;;;;1.00;1.00;;;;;;;;5024850;28;45586;-65
2022/11/04 12:50:02;;;;;;;;;2.00;2.00;;;;;;;;5161644;22;46797;-67
2022/11/04 12:52:46;;;;;;;;;1.00;1.00;;;;;;;;5050230;28;45707;-67
2022/11/04 12:55:30;;;;;;;;;1.00;1.00;;;;;;;;5045035;28;45906;-66
2022/11/04 12:58:01;;;;;;;;;2.00;0.33;;;;;;;;5040541;28;45464;-66
2022/11/04 13:00:29;;;;;;;;;3.00;1.00;;;;;;;;5029043;28;45767;-67
2022/11/04 13:03:04;;;;;;;;;1.33;1.33;;;;;;;;5044336;28;45440;-66
2022/11/04 13:05:34;;;;;;;;;1.00;1.00;;;;;;;;5044032;28;45677;-66
2022/11/04 13:08:08;;;;;;;;;1.67;1.00;;;;;;;;5041828;28;46474;-66
2022/11/04 13:10:43;;;;;;;;;0.00;0.00;;;;;;;;5039455;28;46033;-67
2022/11/04 13:13:10;;;;;;;;;3.00;1.00;;;;;;;;5048224;28;45770;-67
2022/11/04 13:15:45;;;;;;;;;2.00;0.00;;;;;;;;5059795;28;45804;-67
2022/11/04 13:18:13;;;;;;;;;3.33;0.00;;;;;;;;5054658;28;45592;-65
2022/11/04 13:21:01;;;;;;;;;0.67;0.00;;;;;;;;5049707;28;45729;-65
2022/11/04 13:23:30;;;;;;;;;0.00;0.00;;;;;;;;5041513;28;45952;-66
2022/11/04 13:25:57;;;;;;;;;0.33;0.00;;;;;;;;5048330;28;45810;-66
2022/11/04 13:28:23;;;;;;;;;0.00;0.00;;;;;;;;5053481;28;45570;-66
2022/11/04 13:30:53;;;;;;;;;1.00;1.00;;;;;;;;5053542;28;45544;-65
2022/11/04 13:33:24;;;;;;;;;3.00;3.00;;;;;;;;5053181;28;45464;-66
2022/11/04 13:36:06;;;;;;;;;0.00;0.00;;;;;;;;5032199;28;47794;-67
2022/11/04 13:38:35;;;;;;;;;2.00;1.00;;;;;;;;5050474;28;45467;-66
2022/11/04 13:41:00;;;;;;;;;2.33;0.67;;;;;;;;5052621;28;45825;-68
2022/11/04 13:43:39;;;;;;;;;1.00;1.00;;;;;;;;5052869;28;45436;-67
2022/11/04 13:46:27;;;;;;;;;0.33;0.33;;;;;;;;5045101;28;45443;-66
2022/11/04 13:48:59;;;;;;;;;2.33;1.00;;;;;;;;5035701;28;45654;-66
2022/11/04 13:51:32;;;;;;;;;1.67;1.67;;;;;;;;5034619;28;45734;-66
2022/11/04 13:53:58;;;;;;;;;2.00;0.00;;;;;;;;5051211;28;45882;-67
2022/11/04 13:56:31;;;;;;;;;1.00;1.00;;;;;;;;5050858;28;47071;-67
2022/11/04 13:58:59;;;;;;;;;2.67;1.00;;;;;;;;5048481;28;45769;-67
2022/11/04 14:01:26;;;;;;;;;1.00;1.00;;;;;;;;5040503;28;45651;-66
2022/11/04 14:03:53;;;;;;;;;1.00;0.33;;;;;;;;5050185;28;45895;-68
2022/11/04 14:06:46;;;;;;;;;0.00;0.00;;;;;;;;5043548;28;46579;-66
2022/11/04 14:09:30;;;;;;;;;1.00;1.00;;;;;;;;5045607;28;45374;-66
2022/11/04 14:12:12;;;;;;;;;1.67;1.67;;;;;;;;5043024;28;45746;-68
2022/11/04 14:14:38;;;;;;;;;1.00;1.00;;;;;;;;5049018;28;45504;-66
2022/11/04 14:17:06;;;;;;;;;1.33;1.33;;;;;;;;5036836;28;46848;-66
2022/11/04 14:19:46;;;;;;;;;3.00;3.00;;;;;;;;5048652;28;45686;-65
2022/11/04 14:22:16;;;;;;;;;3.00;3.00;;;;;;;;5033481;28;45370;-65
2022/11/04 14:24:41;;;;;;;;;3.67;1.67;;;;;;;;5045869;28;45354;-67
2022/11/04 14:27:22;;;;;;;;;8.00;5.33;;;;;;;;5051630;28;46392;-66
2022/11/04 14:29:50;;;;;;;;;5.00;3.00;;;;;;;;5051279;28;45612;-66
2022/11/04 14:32:22;;;;;;;;;4.00;3.67;;;;;;;;5034072;28;45385;-66
2022/11/04 14:34:55;;;;;;;;;2.67;2.67;;;;;;;;5032121;28;45404;-67
2022/11/04 14:37:24;;;;;;;;;7.33;4.00;;;;;;;;5036926;28;45810;-68
2022/11/04 14:39:54;;;;;;;;;2.33;2.33;;;;;;;;5046925;28;45575;-66
2022/11/04 14:42:39;;;;;;;;;6.67;3.00;;;;;;;;5043512;28;45775;-66
2022/11/04 14:45:07;;;;;;;;;3.00;2.00;;;;;;;;5050604;28;45535;-67
2022/11/04 14:47:32;;;;;;;;;3.00;3.00;;;;;;;;5039686;28;45502;-66
2022/11/04 14:49:57;;;;;;;;;4.67;3.00;;;;;;;;5050749;28;45726;-68
2022/11/04 14:52:23;;;;;;;;;2.67;2.67;;;;;;;;5042653;28;45871;-66
2022/11/04 14:54:49;;;;;;;;;3.00;3.00;;;;;;;;5049786;28;45781;-66
2022/11/04 14:57:20;;;;;;;;;3.33;2.67;;;;;;;;5028527;28;45512;-67
2022/11/04 14:59:45;;;;;;;;;2.33;2.33;;;;;;;;5028033;28;45449;-69
2022/11/04 15:02:34;;;;;;;;;4.67;1.67;;;;;;;;5047448;28;45785;-66
2022/11/04 15:05:00;;;;;;;;;1.33;1.33;;;;;;;;5049279;28;45398;-67
2022/11/04 15:07:36;;;;;;;;;0.67;0.67;;;;;;;;5046570;28;46459;-69
2022/11/04 15:10:16;;;;;;;;;2.00;2.00;;;;;;;;5039819;28;45383;-67
2022/11/04 15:12:53;;;;;;;;;2.33;0.67;;;;;;;;5046690;28;45526;-66
2022/11/04 15:15:25;;;;;;;;;1.33;0.00;;;;;;;;5051025;28;45723;-65
2022/11/04 15:17:51;;;;;;;;;1.00;0.33;;;;;;;;5052875;28;45753;-66
2022/11/04 15:20:23;;;;;;;;;0.67;0.67;;;;;;;;5050152;28;45756;-66
2022/11/04 15:22:48;;;;;;;;;0.00;0.00;;;;;;;;5040743;28;45746;-64
2022/11/04 15:25:13;;;;;;;;;0.00;0.00;;;;;;;;5060155;28;45980;-67
2022/11/04 15:27:39;;;;;;;;;0.67;0.00;;;;;;;;5047094;28;45443;-66
2022/11/04 15:30:17;;;;;;;;;0.00;0.00;;;;;;;;5032187;28;45885;-65
2022/11/04 15:32:51;;;;;;;;;0.00;0.00;;;;;;;;5040761;28;45957;-67
2022/11/04 15:35:17;;;;;;;;;0.00;0.00;;;;;;;;5010054;28;47351;-69
2022/11/04 15:37:42;;;;;;;;;0.67;0.67;;;;;;;;5049205;28;45394;-65
2022/11/04 15:40:12;;;;;;;;;0.00;0.00;;;;;;;;5051374;28;45859;-65
2022/11/04 15:42:41;;;;;;;;;1.00;0.67;;;;;;;;5033973;28;45373;-65
2022/11/04 15:45:25;;;;;;;;;0.00;0.00;;;;;;;;5031578;28;45618;-67
2022/11/04 15:48:10;;;;;;;;;0.33;0.00;;;;;;;;5046057;28;46669;-65
2022/11/04 15:50:35;;;;;;;;;0.00;0.00;;;;;;;;4992344;28;45962;-66
2022/11/04 15:53:01;;;;;;;;;0.00;0.00;;;;;;;;5015982;28;45765;-66
2022/11/04 15:55:26;;;;;;;;;0.67;0.00;;;;;;;;5013151;28;45820;-66